sensor_id;sensor_type;location;lat;lon;timestamp;temperature;humidity
12872;DHT22;6504;53.766;9.626;2022-11-20T00:01:05;1.70;99.90
12872;DHT22;6504;53.766;9.626;2022-11-20T00:03:33;1.70;99.90
12872;DHT22;6504;53.766;9.626;2022-11-20T00:06:02;1.70;99.90
12872;DHT22;6504;53.766;9.626;2022-11-20T00:08:30;1.70;99.90
12872;DHT22;6504;53.766;9.626;2022-11-20T00:11:03;1.80;99.90
12872;DHT22;6504;53.766;9.626;2022-11-20T00:13:31;1.80;99.90
12872;DHT22;6504;53.766;9.626;2022-11-20T00:16:03;1.80;99.90
12872;DHT22;6504;53.766;9.626;2022-11-20T00:18:32;1.70;99.90
12872;DHT22;6504;53.766;9.626;2022-11-20T00:21:01;1.70;99.90
12872;DHT22;6504;53.766;9.626;2022-11-20T00:23:30;1.70;99.90
12872;DHT22;6504;53.766;9.626;2022-11-20T00:26:01;1.70;99.90
12872;DHT22;6504;53.766;9.626;2022-11-20T00:28:29;1.80;99.90
12872;DHT22;6504;53.766;9.626;2022-11-20T00:31:03;1.80;99.90
12872;DHT22;6504;53.766;9.626;2022-11-20T00:33:31;1.80;99.90
12872;DHT22;6504;53.766;9.626;2022-11-20T00:36:00;1.80;99.90
12872;DHT22;6504;53.766;9.626;2022-11-20T00:38:29;1.80;99.90
12872;DHT22;6504;53.766;9.626;2022-11-20T00:40:58;1.80;99.90
12872;DHT22;6504;53.766;9.626;2022-11-20T00:43:26;1.70;99.90
12872;DHT22;6504;53.766;9.626;2022-11-20T00:45:58;1.70;99.90
12872;DHT22;6504;53.766;9.626;2022-11-20T00:48:27;1.70;99.90
12872;DHT22;6504;53.766;9.626;2022-11-20T00:50:56;1.70;99.90
12872;DHT22;6504;53.766;9.626;2022-11-20T00:53:24;1.60;99.90
12872;DHT22;6504;53.766;9.626;2022-11-20T00:55:53;1.60;99.90
12872;DHT22;6504;53.766;9.626;2022-11-20T00:58:22;1.60;99.90
12872;DHT22;6504;53.766;9.626;2022-11-20T01:00:51;1.60;99.90
12872;DHT22;6504;53.766;9.626;2022-11-20T01:03:19;1.60;99.90
12872;DHT22;6504;53.766;9.626;2022-11-20T01:05:54;1.60;99.90
12872;DHT22;6504;53.766;9.626;2022-11-20T01:08:22;1.70;99.90
12872;DHT22;6504;53.766;9.626;2022-11-20T01:10:50;1.70;99.90
12872;DHT22;6504;53.766;9.626;2022-11-20T01:13:18;1.70;99.90
12872;DHT22;6504;53.766;9.626;2022-11-20T01:16:04;1.70;99.90
12872;DHT22;6504;53.766;9.626;2022-11-20T01:18:33;1.70;99.90
12872;DHT22;6504;53.766;9.626;2022-11-20T01:21:03;1.70;99.90
12872;DHT22;6504;53.766;9.626;2022-11-20T01:23:32;1.70;99.90
12872;DHT22;6504;53.766;9.626;2022-11-20T01:26:01;1.70;99.90
12872;DHT22;6504;53.766;9.626;2022-11-20T01:28:30;1.70;99.90
12872;DHT22;6504;53.766;9.626;2022-11-20T01:30:58;1.70;99.90
12872;DHT22;6504;53.766;9.626;2022-11-20T01:33:26;1.70;99.90
12872;DHT22;6504;53.766;9.626;2022-11-20T01:36:05;1.70;99.90
12872;DHT22;6504;53.766;9.626;2022-11-20T01:38:34;1.70;99.90
12872;DHT22;6504;53.766;9.626;2022-11-20T01:41:02;1.70;99.90
12872;DHT22;6504;53.766;9.626;2022-11-20T01:43:30;1.70;99.90
12872;DHT22;6504;53.766;9.626;2022-11-20T01:46:13;1.80;99.90
12872;DHT22;6504;53.766;9.626;2022-11-20T01:48:47;1.80;99.90
12872;DHT22;6504;53.766;9.626;2022-11-20T01:51:22;1.80;99.90
12872;DHT22;6504;53.766;9.626;2022-11-20T01:53:53;1.80;99.90
12872;DHT22;6504;53.766;9.626;2022-11-20T01:56:22;1.80;99.90
12872;DHT22;6504;53.766;9.626;2022-11-20T01:58:52;1.80;99.90
12872;DHT22;6504;53.766;9.626;2022-11-20T02:01:21;1.80;99.90
12872;DHT22;6504;53.766;9.626;2022-11-20T02:03:49;1.80;99.90
12872;DHT22;6504;53.766;9.626;2022-11-20T02:06:24;1.80;99.90
12872;DHT22;6504;53.766;9.626;2022-11-20T02:08:53;1.80;99.90
12872;DHT22;6504;53.766;9.626;2022-11-20T02:11:22;1.80;99.90
12872;DHT22;6504;53.766;9.626;2022-11-20T02:13:50;1.80;99.90
12872;DHT22;6504;53.766;9.626;2022-11-20T02:16:21;1.80;99.90
12872;DHT22;6504;53.766;9.626;2022-11-20T02:18:51;1.80;99.90
12872;DHT22;6504;53.766;9.626;2022-11-20T02:21:28;1.80;99.90
12872;DHT22;6504;53.766;9.626;2022-11-20T02:24:04;1.80;99.90
12872;DHT22;6504;53.766;9.626;2022-11-20T02:26:38;1.70;99.90
12872;DHT22;6504;53.766;9.626;2022-11-20T02:29:08;1.80;99.90
12872;DHT22;6504;53.766;9.626;2022-11-20T02:31:38;1.80;99.90
12872;DHT22;6504;53.766;9.626;2022-11-20T02:34:07;1.80;99.90
12872;DHT22;6504;53.766;9.626;2022-11-20T02:36:36;1.80;99.90
12872;DHT22;6504;53.766;9.626;2022-11-20T02:39:08;1.80;99.90
12872;DHT22;6504;53.766;9.626;2022-11-20T02:41:37;1.90;99.90
12872;DHT22;6504;53.766;9.626;2022-11-20T02:44:05;1.90;99.90
12872;DHT22;6504;53.766;9.626;2022-11-20T02:46:34;1.90;99.90
12872;DHT22;6504;53.766;9.626;2022-11-20T02:49:03;1.90;99.90
12872;DHT22;6504;53.766;9.626;2022-11-20T02:51:32;1.90;99.90
12872;DHT22;6504;53.766;9.626;2022-11-20T02:54:00;1.90;99.90
12872;DHT22;6504;53.766;9.626;2022-11-20T02:56:30;1.90;99.90
12872;DHT22;6504;53.766;9.626;2022-11-20T02:58:58;1.90;99.90
12872;DHT22;6504;53.766;9.626;2022-11-20T03:01:26;1.80;99.90
12872;DHT22;6504;53.766;9.626;2022-11-20T03:03:54;1.80;99.90
12872;DHT22;6504;53.766;9.626;2022-11-20T03:06:22;1.80;99.90
12872;DHT22;6504;53.766;9.626;2022-11-20T03:08:50;1.80;99.90
12872;DHT22;6504;53.766;9.626;2022-11-20T03:11:18;1.80;99.90
12872;DHT22;6504;53.766;9.626;2022-11-20T03:13:48;1.80;99.90
12872;DHT22;6504;53.766;9.626;2022-11-20T03:16:17;1.70;99.90
12872;DHT22;6504;53.766;9.626;2022-11-20T03:18:46;1.70;99.90
12872;DHT22;6504;53.766;9.626;2022-11-20T03:21:15;1.70;99.90
12872;DHT22;6504;53.766;9.626;2022-11-20T03:23:43;1.80;99.90
12872;DHT22;6504;53.766;9.626;2022-11-20T03:26:14;1.80;99.90
12872;DHT22;6504;53.766;9.626;2022-11-20T03:28:47;1.80;99.90
12872;DHT22;6504;53.766;9.626;2022-11-20T03:31:17;1.80;99.90
12872;DHT22;6504;53.766;9.626;2022-11-20T03:33:45;1.80;99.90
12872;DHT22;6504;53.766;9.626;2022-11-20T03:36:15;1.80;99.90
12872;DHT22;6504;53.766;9.626;2022-11-20T03:38:44;1.70;99.90
12872;DHT22;6504;53.766;9.626;2022-11-20T03:41:14;1.70;99.90
12872;DHT22;6504;53.766;9.626;2022-11-20T03:43:47;1.80;99.90
12872;DHT22;6504;53.766;9.626;2022-11-20T03:46:17;1.80;99.90
12872;DHT22;6504;53.766;9.626;2022-11-20T03:48:45;1.80;99.90
12872;DHT22;6504;53.766;9.626;2022-11-20T03:51:19;1.80;99.90
12872;DHT22;6504;53.766;9.626;2022-11-20T03:53:48;1.80;99.90
12872;DHT22;6504;53.766;9.626;2022-11-20T03:56:19;1.80;99.90
12872;DHT22;6504;53.766;9.626;2022-11-20T03:58:49;1.80;99.90
12872;DHT22;6504;53.766;9.626;2022-11-20T04:01:19;1.80;99.90
12872;DHT22;6504;53.766;9.626;2022-11-20T04:03:48;1.70;99.90
12872;DHT22;6504;53.766;9.626;2022-11-20T04:06:20;1.70;99.90
12872;DHT22;6504;53.766;9.626;2022-11-20T04:08:48;1.80;99.90
12872;DHT22;6504;53.766;9.626;2022-11-20T04:11:21;1.70;99.90
12872;DHT22;6504;53.766;9.626;2022-11-20T04:13:52;1.80;99.90
12872;DHT22;6504;53.766;9.626;2022-11-20T04:16:22;1.80;99.90
12872;DHT22;6504;53.766;9.626;2022-11-20T04:18:52;1.80;99.90
12872;DHT22;6504;53.766;9.626;2022-11-20T04:21:20;1.80;99.90
12872;DHT22;6504;53.766;9.626;2022-11-20T04:23:49;1.80;99.90
12872;DHT22;6504;53.766;9.626;2022-11-20T04:26:17;1.80;99.90
12872;DHT22;6504;53.766;9.626;2022-11-20T04:28:45;1.80;99.90
12872;DHT22;6504;53.766;9.626;2022-11-20T04:31:16;1.80;99.90
12872;DHT22;6504;53.766;9.626;2022-11-20T04:33:45;1.80;99.90
12872;DHT22;6504;53.766;9.626;2022-11-20T04:36:14;1.80;99.90
12872;DHT22;6504;53.766;9.626;2022-11-20T04:38:43;1.80;99.90
12872;DHT22;6504;53.766;9.626;2022-11-20T04:41:19;1.80;99.90
12872;DHT22;6504;53.766;9.626;2022-11-20T04:43:48;1.80;99.90
12872;DHT22;6504;53.766;9.626;2022-11-20T04:46:18;1.80;99.90
12872;DHT22;6504;53.766;9.626;2022-11-20T04:48:47;1.80;99.90
12872;DHT22;6504;53.766;9.626;2022-11-20T04:51:15;1.80;99.90
12872;DHT22;6504;53.766;9.626;2022-11-20T04:53:43;1.80;99.90
12872;DHT22;6504;53.766;9.626;2022-11-20T04:56:12;1.80;99.90
12872;DHT22;6504;53.766;9.626;2022-11-20T04:58:40;1.80;99.90
12872;DHT22;6504;53.766;9.626;2022-11-20T05:01:11;1.80;99.90
12872;DHT22;6504;53.766;9.626;2022-11-20T05:03:41;1.80;99.90
12872;DHT22;6504;53.766;9.626;2022-11-20T05:06:10;1.70;99.90
12872;DHT22;6504;53.766;9.626;2022-11-20T05:08:39;1.70;99.90
12872;DHT22;6504;53.766;9.626;2022-11-20T05:11:10;1.70;99.90
12872;DHT22;6504;53.766;9.626;2022-11-20T05:13:38;1.70;99.90
12872;DHT22;6504;53.766;9.626;2022-11-20T05:16:09;1.70;99.90
12872;DHT22;6504;53.766;9.626;2022-11-20T05:18:39;1.70;99.90
12872;DHT22;6504;53.766;9.626;2022-11-20T05:21:09;1.70;99.90
12872;DHT22;6504;53.766;9.626;2022-11-20T05:23:37;1.70;99.90
12872;DHT22;6504;53.766;9.626;2022-11-20T05:26:08;1.80;99.90
12872;DHT22;6504;53.766;9.626;2022-11-20T05:28:39;1.70;99.90
12872;DHT22;6504;53.766;9.626;2022-11-20T05:31:10;1.70;99.90
12872;DHT22;6504;53.766;9.626;2022-11-20T05:33:41;1.70;99.90
12872;DHT22;6504;53.766;9.626;2022-11-20T05:36:10;1.70;99.90
12872;DHT22;6504;53.766;9.626;2022-11-20T05:38:39;1.60;99.90
12872;DHT22;6504;53.766;9.626;2022-11-20T05:41:09;1.60;99.90
12872;DHT22;6504;53.766;9.626;2022-11-20T05:43:39;1.60;99.90
12872;DHT22;6504;53.766;9.626;2022-11-20T05:46:09;1.60;99.90
12872;DHT22;6504;53.766;9.626;2022-11-20T05:48:40;1.70;99.90
12872;DHT22;6504;53.766;9.626;2022-11-20T05:51:11;1.60;99.90
12872;DHT22;6504;53.766;9.626;2022-11-20T05:53:40;1.70;99.90
12872;DHT22;6504;53.766;9.626;2022-11-20T05:56:16;1.70;99.90
12872;DHT22;6504;53.766;9.626;2022-11-20T05:58:45;1.70;99.90
12872;DHT22;6504;53.766;9.626;2022-11-20T06:01:15;1.70;99.90
12872;DHT22;6504;53.766;9.626;2022-11-20T06:03:45;1.60;99.90
12872;DHT22;6504;53.766;9.626;2022-11-20T06:06:15;1.70;99.90
12872;DHT22;6504;53.766;9.626;2022-11-20T06:08:43;1.70;99.90
12872;DHT22;6504;53.766;9.626;2022-11-20T06:11:12;1.60;99.90
12872;DHT22;6504;53.766;9.626;2022-11-20T06:13:41;1.60;99.90
12872;DHT22;6504;53.766;9.626;2022-11-20T06:16:10;1.60;99.90
12872;DHT22;6504;53.766;9.626;2022-11-20T06:18:39;1.60;99.90
12872;DHT22;6504;53.766;9.626;2022-11-20T06:21:09;1.60;99.90
12872;DHT22;6504;53.766;9.626;2022-11-20T06:23:38;1.60;99.90
12872;DHT22;6504;53.766;9.626;2022-11-20T06:26:07;1.60;99.90
12872;DHT22;6504;53.766;9.626;2022-11-20T06:28:35;1.60;99.90
12872;DHT22;6504;53.766;9.626;2022-11-20T06:31:04;1.60;99.90
12872;DHT22;6504;53.766;9.626;2022-11-20T06:33:33;1.60;99.90
12872;DHT22;6504;53.766;9.626;2022-11-20T06:36:02;1.60;99.90
12872;DHT22;6504;53.766;9.626;2022-11-20T06:38:38;1.50;99.90
12872;DHT22;6504;53.766;9.626;2022-11-20T06:41:07;1.50;99.90
12872;DHT22;6504;53.766;9.626;2022-11-20T06:43:35;1.50;99.90
12872;DHT22;6504;53.766;9.626;2022-11-20T06:46:03;1.50;99.90
12872;DHT22;6504;53.766;9.626;2022-11-20T06:48:32;1.50;99.90
12872;DHT22;6504;53.766;9.626;2022-11-20T06:51:02;1.50;99.90
12872;DHT22;6504;53.766;9.626;2022-11-20T06:53:31;1.50;99.90
12872;DHT22;6504;53.766;9.626;2022-11-20T06:56:00;1.50;99.90
12872;DHT22;6504;53.766;9.626;2022-11-20T06:58:30;1.50;99.90
12872;DHT22;6504;53.766;9.626;2022-11-20T07:00:58;1.60;99.90
12872;DHT22;6504;53.766;9.626;2022-11-20T07:03:27;1.60;99.90
12872;DHT22;6504;53.766;9.626;2022-11-20T07:05:55;1.60;99.90
12872;DHT22;6504;53.766;9.626;2022-11-20T07:08:24;1.60;99.90
12872;DHT22;6504;53.766;9.626;2022-11-20T07:10:52;1.70;99.90
12872;DHT22;6504;53.766;9.626;2022-11-20T07:13:26;1.70;99.90
12872;DHT22;6504;53.766;9.626;2022-11-20T07:15:54;1.70;99.90
12872;DHT22;6504;53.766;9.626;2022-11-20T07:18:22;1.70;99.90
12872;DHT22;6504;53.766;9.626;2022-11-20T07:20:50;1.70;99.90
12872;DHT22;6504;53.766;9.626;2022-11-20T07:23:18;1.70;99.90
12872;DHT22;6504;53.766;9.626;2022-11-20T07:25:46;1.70;99.90
12872;DHT22;6504;53.766;9.626;2022-11-20T07:28:14;1.70;99.90
12872;DHT22;6504;53.766;9.626;2022-11-20T07:30:49;1.70;99.90
12872;DHT22;6504;53.766;9.626;2022-11-20T07:33:18;1.70;99.90
12872;DHT22;6504;53.766;9.626;2022-11-20T07:35:46;1.70;99.90
12872;DHT22;6504;53.766;9.626;2022-11-20T07:38:14;1.70;99.90
12872;DHT22;6504;53.766;9.626;2022-11-20T07:40:42;1.70;99.90
12872;DHT22;6504;53.766;9.626;2022-11-20T07:43:10;1.70;99.90
12872;DHT22;6504;53.766;9.626;2022-11-20T07:45:38;1.80;99.90
12872;DHT22;6504;53.766;9.626;2022-11-20T07:48:08;1.80;99.90
12872;DHT22;6504;53.766;9.626;2022-11-20T07:50:36;1.80;99.90
12872;DHT22;6504;53.766;9.626;2022-11-20T07:53:05;1.80;99.90
12872;DHT22;6504;53.766;9.626;2022-11-20T07:55:33;1.80;99.90
12872;DHT22;6504;53.766;9.626;2022-11-20T07:58:01;1.80;99.90
12872;DHT22;6504;53.766;9.626;2022-11-20T08:00:29;1.80;99.90
12872;DHT22;6504;53.766;9.626;2022-11-20T08:02:57;1.80;99.90
12872;DHT22;6504;53.766;9.626;2022-11-20T08:05:26;1.80;99.90
12872;DHT22;6504;53.766;9.626;2022-11-20T08:07:55;1.80;99.90
12872;DHT22;6504;53.766;9.626;2022-11-20T08:10:23;1.80;99.90
12872;DHT22;6504;53.766;9.626;2022-11-20T08:12:52;1.80;99.90
12872;DHT22;6504;53.766;9.626;2022-11-20T08:15:39;1.80;99.90
12872;DHT22;6504;53.766;9.626;2022-11-20T08:18:09;1.80;99.90
12872;DHT22;6504;53.766;9.626;2022-11-20T08:21:02;1.80;99.90
12872;DHT22;6504;53.766;9.626;2022-11-20T08:23:30;1.80;99.90
12872;DHT22;6504;53.766;9.626;2022-11-20T08:25:58;1.80;99.90
12872;DHT22;6504;53.766;9.626;2022-11-20T08:28:26;1.80;99.90
12872;DHT22;6504;53.766;9.626;2022-11-20T08:30:58;1.80;99.90
12872;DHT22;6504;53.766;9.626;2022-11-20T08:33:26;1.80;99.90
12872;DHT22;6504;53.766;9.626;2022-11-20T08:35:59;1.80;99.90
12872;DHT22;6504;53.766;9.626;2022-11-20T08:38:27;1.80;99.90
12872;DHT22;6504;53.766;9.626;2022-11-20T08:40:57;1.80;99.90
12872;DHT22;6504;53.766;9.626;2022-11-20T08:43:42;1.70;99.90
12872;DHT22;6504;53.766;9.626;2022-11-20T08:46:10;1.80;99.90
12872;DHT22;6504;53.766;9.626;2022-11-20T08:48:40;1.70;99.90
12872;DHT22;6504;53.766;9.626;2022-11-20T08:51:10;1.80;99.90
12872;DHT22;6504;53.766;9.626;2022-11-20T08:53:38;1.80;99.90
12872;DHT22;6504;53.766;9.626;2022-11-20T08:56:07;1.80;99.90
12872;DHT22;6504;53.766;9.626;2022-11-20T08:58:36;1.80;99.90
12872;DHT22;6504;53.766;9.626;2022-11-20T09:01:24;1.80;99.90
12872;DHT22;6504;53.766;9.626;2022-11-20T09:03:52;1.80;99.90
12872;DHT22;6504;53.766;9.626;2022-11-20T09:06:23;1.90;99.90
12872;DHT22;6504;53.766;9.626;2022-11-20T09:08:52;1.80;99.90
12872;DHT22;6504;53.766;9.626;2022-11-20T09:11:20;1.90;99.90
12872;DHT22;6504;53.766;9.626;2022-11-20T09:13:49;1.90;99.90
12872;DHT22;6504;53.766;9.626;2022-11-20T09:16:17;1.90;99.90
12872;DHT22;6504;53.766;9.626;2022-11-20T09:18:45;1.90;99.90
12872;DHT22;6504;53.766;9.626;2022-11-20T09:21:29;1.90;99.90
12872;DHT22;6504;53.766;9.626;2022-11-20T09:23:57;1.90;99.90
12872;DHT22;6504;53.766;9.626;2022-11-20T09:26:25;1.90;99.90
12872;DHT22;6504;53.766;9.626;2022-11-20T09:28:53;1.90;99.90
12872;DHT22;6504;53.766;9.626;2022-11-20T09:31:24;1.90;99.90
12872;DHT22;6504;53.766;9.626;2022-11-20T09:33:53;2.00;99.90
12872;DHT22;6504;53.766;9.626;2022-11-20T09:36:21;2.00;99.90
12872;DHT22;6504;53.766;9.626;2022-11-20T09:38:51;2.00;99.90
12872;DHT22;6504;53.766;9.626;2022-11-20T09:41:38;2.00;99.90
12872;DHT22;6504;53.766;9.626;2022-11-20T09:44:13;2.00;99.90
12872;DHT22;6504;53.766;9.626;2022-11-20T09:46:48;2.10;99.90
12872;DHT22;6504;53.766;9.626;2022-11-20T09:49:28;2.10;99.90
12872;DHT22;6504;53.766;9.626;2022-11-20T09:52:08;2.10;99.90
12872;DHT22;6504;53.766;9.626;2022-11-20T09:54:41;2.10;99.90
12872;DHT22;6504;53.766;9.626;2022-11-20T09:57:11;2.10;99.90
12872;DHT22;6504;53.766;9.626;2022-11-20T09:59:41;2.10;99.90
12872;DHT22;6504;53.766;9.626;2022-11-20T10:02:25;2.10;99.90
12872;DHT22;6504;53.766;9.626;2022-11-20T10:05:00;2.10;99.90
12872;DHT22;6504;53.766;9.626;2022-11-20T10:07:36;2.20;99.90
12872;DHT22;6504;53.766;9.626;2022-11-20T10:10:16;2.20;99.90
12872;DHT22;6504;53.766;9.626;2022-11-20T10:12:58;2.20;99.90
12872;DHT22;6504;53.766;9.626;2022-11-20T10:15:33;2.20;99.90
12872;DHT22;6504;53.766;9.626;2022-11-20T10:18:16;2.20;99.90
12872;DHT22;6504;53.766;9.626;2022-11-20T10:20:50;2.20;99.90
12872;DHT22;6504;53.766;9.626;2022-11-20T10:23:35;2.20;99.90
12872;DHT22;6504;53.766;9.626;2022-11-20T10:26:17;2.20;99.90
12872;DHT22;6504;53.766;9.626;2022-11-20T10:28:56;2.20;99.90
12872;DHT22;6504;53.766;9.626;2022-11-20T10:31:36;2.20;99.90
12872;DHT22;6504;53.766;9.626;2022-11-20T10:34:07;2.20;99.90
12872;DHT22;6504;53.766;9.626;2022-11-20T10:36:51;2.20;99.90
12872;DHT22;6504;53.766;9.626;2022-11-20T10:39:25;2.30;99.90
12872;DHT22;6504;53.766;9.626;2022-11-20T10:41:58;2.30;99.90
12872;DHT22;6504;53.766;9.626;2022-11-20T10:44:28;2.30;99.90
12872;DHT22;6504;53.766;9.626;2022-11-20T10:47:19;2.30;99.90
12872;DHT22;6504;53.766;9.626;2022-11-20T10:49:51;2.30;99.90
12872;DHT22;6504;53.766;9.626;2022-11-20T10:52:27;2.30;99.90
12872;DHT22;6504;53.766;9.626;2022-11-20T10:55:01;2.40;99.90
12872;DHT22;6504;53.766;9.626;2022-11-20T10:57:47;2.40;99.90
12872;DHT22;6504;53.766;9.626;2022-11-20T11:00:18;2.40;99.90
12872;DHT22;6504;53.766;9.626;2022-11-20T11:02:48;2.40;99.90
12872;DHT22;6504;53.766;9.626;2022-11-20T11:05:22;2.40;99.90
12872;DHT22;6504;53.766;9.626;2022-11-20T11:07:55;2.40;99.90
12872;DHT22;6504;53.766;9.626;2022-11-20T11:10:26;2.40;99.90
12872;DHT22;6504;53.766;9.626;2022-11-20T11:12:58;2.40;99.90
12872;DHT22;6504;53.766;9.626;2022-11-20T11:15:28;2.50;99.90
12872;DHT22;6504;53.766;9.626;2022-11-20T11:17:56;2.50;99.90
12872;DHT22;6504;53.766;9.626;2022-11-20T11:20:25;2.50;99.90
12872;DHT22;6504;53.766;9.626;2022-11-20T11:22:55;2.50;99.90
12872;DHT22;6504;53.766;9.626;2022-11-20T11:25:27;2.60;99.90
12872;DHT22;6504;53.766;9.626;2022-11-20T11:27:58;2.60;99.90
12872;DHT22;6504;53.766;9.626;2022-11-20T11:30:28;2.60;99.90
12872;DHT22;6504;53.766;9.626;2022-11-20T11:33:06;2.60;99.90
12872;DHT22;6504;53.766;9.626;2022-11-20T11:35:44;2.60;99.90
12872;DHT22;6504;53.766;9.626;2022-11-20T11:38:21;2.70;99.90
12872;DHT22;6504;53.766;9.626;2022-11-20T11:40:49;2.70;99.90
12872;DHT22;6504;53.766;9.626;2022-11-20T11:43:23;2.70;99.90
12872;DHT22;6504;53.766;9.626;2022-11-20T11:46:24;2.80;99.90
12872;DHT22;6504;53.766;9.626;2022-11-20T11:48:57;2.90;99.90
12872;DHT22;6504;53.766;9.626;2022-11-20T11:51:31;2.90;99.90
12872;DHT22;6504;53.766;9.626;2022-11-20T11:54:01;2.90;99.90
12872;DHT22;6504;53.766;9.626;2022-11-20T11:56:32;2.90;99.90
12872;DHT22;6504;53.766;9.626;2022-11-20T11:59:04;2.90;99.90
12872;DHT22;6504;53.766;9.626;2022-11-20T12:01:40;3.00;99.90
12872;DHT22;6504;53.766;9.626;2022-11-20T12:04:16;3.00;99.90
12872;DHT22;6504;53.766;9.626;2022-11-20T12:06:51;3.00;99.90
12872;DHT22;6504;53.766;9.626;2022-11-20T12:09:35;3.10;99.90
12872;DHT22;6504;53.766;9.626;2022-11-20T12:12:08;3.10;99.90
12872;DHT22;6504;53.766;9.626;2022-11-20T12:14:40;3.10;99.90
12872;DHT22;6504;53.766;9.626;2022-11-20T12:17:11;3.10;99.90
12872;DHT22;6504;53.766;9.626;2022-11-20T12:19:40;3.20;99.90
12872;DHT22;6504;53.766;9.626;2022-11-20T12:22:19;3.20;99.90
12872;DHT22;6504;53.766;9.626;2022-11-20T12:24:56;3.20;99.90
12872;DHT22;6504;53.766;9.626;2022-11-20T12:27:47;3.30;99.90
12872;DHT22;6504;53.766;9.626;2022-11-20T12:30:21;3.20;99.90
12872;DHT22;6504;53.766;9.626;2022-11-20T12:33:20;3.20;99.90
12872;DHT22;6504;53.766;9.626;2022-11-20T12:36:01;3.20;99.90
12872;DHT22;6504;53.766;9.626;2022-11-20T12:39:07;3.20;99.90
12872;DHT22;6504;53.766;9.626;2022-11-20T12:41:55;3.10;99.90
12872;DHT22;6504;53.766;9.626;2022-11-20T12:44:58;3.00;99.90
12872;DHT22;6504;53.766;9.626;2022-11-20T12:47:49;3.00;99.90
12872;DHT22;6504;53.766;9.626;2022-11-20T12:50:28;3.00;99.90
12872;DHT22;6504;53.766;9.626;2022-11-20T12:53:25;3.00;99.90
12872;DHT22;6504;53.766;9.626;2022-11-20T12:55:59;3.00;99.90
12872;DHT22;6504;53.766;9.626;2022-11-20T12:58:35;3.00;99.90
12872;DHT22;6504;53.766;9.626;2022-11-20T13:01:16;3.10;99.90
12872;DHT22;6504;53.766;9.626;2022-11-20T13:04:15;3.10;99.90
12872;DHT22;6504;53.766;9.626;2022-11-20T13:06:46;3.10;99.90
12872;DHT22;6504;53.766;9.626;2022-11-20T13:09:18;3.10;99.90
12872;DHT22;6504;53.766;9.626;2022-11-20T13:11:55;3.10;99.90
12872;DHT22;6504;53.766;9.626;2022-11-20T13:14:33;3.00;99.90
12872;DHT22;6504;53.766;9.626;2022-11-20T13:17:06;3.00;99.90
12872;DHT22;6504;53.766;9.626;2022-11-20T13:19:39;3.00;99.90
12872;DHT22;6504;53.766;9.626;2022-11-20T13:22:08;3.00;99.90
12872;DHT22;6504;53.766;9.626;2022-11-20T13:24:36;3.00;99.90
12872;DHT22;6504;53.766;9.626;2022-11-20T13:27:18;3.00;99.90
12872;DHT22;6504;53.766;9.626;2022-11-20T13:30:03;3.00;99.90
12872;DHT22;6504;53.766;9.626;2022-11-20T13:32:49;3.00;99.90
12872;DHT22;6504;53.766;9.626;2022-11-20T13:35:26;3.00;99.90
12872;DHT22;6504;53.766;9.626;2022-11-20T13:38:06;3.00;99.90
12872;DHT22;6504;53.766;9.626;2022-11-20T13:40:36;3.00;99.90
12872;DHT22;6504;53.766;9.626;2022-11-20T13:43:19;3.00;99.90
12872;DHT22;6504;53.766;9.626;2022-11-20T13:45:59;3.00;99.90
12872;DHT22;6504;53.766;9.626;2022-11-20T13:48:31;3.00;99.90
12872;DHT22;6504;53.766;9.626;2022-11-20T13:51:11;3.00;99.90
12872;DHT22;6504;53.766;9.626;2022-11-20T13:56:41;3.00;99.90
12872;DHT22;6504;53.766;9.626;2022-11-20T13:59:23;3.00;99.90
12872;DHT22;6504;53.766;9.626;2022-11-20T14:01:54;3.00;99.90
12872;DHT22;6504;53.766;9.626;2022-11-20T14:04:28;3.00;99.90
12872;DHT22;6504;53.766;9.626;2022-11-20T14:06:58;3.00;99.90
12872;DHT22;6504;53.766;9.626;2022-11-20T14:09:28;3.00;99.90
12872;DHT22;6504;53.766;9.626;2022-11-20T14:11:56;3.00;99.90
12872;DHT22;6504;53.766;9.626;2022-11-20T14:14:25;3.00;99.90
12872;DHT22;6504;53.766;9.626;2022-11-20T14:17:05;3.10;99.90
12872;DHT22;6504;53.766;9.626;2022-11-20T14:19:34;3.10;99.90
12872;DHT22;6504;53.766;9.626;2022-11-20T14:22:14;3.10;99.90
12872;DHT22;6504;53.766;9.626;2022-11-20T14:24:44;3.10;99.90
12872;DHT22;6504;53.766;9.626;2022-11-20T14:27:14;3.10;99.90
12872;DHT22;6504;53.766;9.626;2022-11-20T14:29:43;3.10;99.90
12872;DHT22;6504;53.766;9.626;2022-11-20T14:32:15;3.10;99.90
12872;DHT22;6504;53.766;9.626;2022-11-20T14:34:45;3.10;99.90
12872;DHT22;6504;53.766;9.626;2022-11-20T14:37:20;3.10;99.90
12872;DHT22;6504;53.766;9.626;2022-11-20T14:39:51;3.10;99.90
12872;DHT22;6504;53.766;9.626;2022-11-20T14:42:21;3.10;99.90
12872;DHT22;6504;53.766;9.626;2022-11-20T14:44:50;3.10;99.90
12872;DHT22;6504;53.766;9.626;2022-11-20T14:47:21;3.10;99.90
12872;DHT22;6504;53.766;9.626;2022-11-20T14:49:52;3.10;99.90
12872;DHT22;6504;53.766;9.626;2022-11-20T14:52:23;3.10;99.90
12872;DHT22;6504;53.766;9.626;2022-11-20T14:54:52;3.10;99.90
12872;DHT22;6504;53.766;9.626;2022-11-20T14:57:24;3.10;99.90
12872;DHT22;6504;53.766;9.626;2022-11-20T15:00:07;3.10;99.90
12872;DHT22;6504;53.766;9.626;2022-11-20T15:02:40;3.10;99.90
12872;DHT22;6504;53.766;9.626;2022-11-20T15:05:09;3.10;99.90
12872;DHT22;6504;53.766;9.626;2022-11-20T15:07:40;3.10;99.90
12872;DHT22;6504;53.766;9.626;2022-11-20T15:10:18;3.10;99.90
12872;DHT22;6504;53.766;9.626;2022-11-20T15:12:48;3.10;99.90
12872;DHT22;6504;53.766;9.626;2022-11-20T15:15:21;3.10;99.90
12872;DHT22;6504;53.766;9.626;2022-11-20T15:17:51;3.10;99.90
12872;DHT22;6504;53.766;9.626;2022-11-20T15:20:19;3.00;99.90
12872;DHT22;6504;53.766;9.626;2022-11-20T15:22:50;3.00;99.90
12872;DHT22;6504;53.766;9.626;2022-11-20T15:25:19;3.00;99.90
12872;DHT22;6504;53.766;9.626;2022-11-20T15:27:50;3.00;99.90
12872;DHT22;6504;53.766;9.626;2022-11-20T15:30:20;3.00;99.90
12872;DHT22;6504;53.766;9.626;2022-11-20T15:32:49;3.00;99.90
12872;DHT22;6504;53.766;9.626;2022-11-20T15:35:17;3.00;99.90
12872;DHT22;6504;53.766;9.626;2022-11-20T15:37:45;3.00;99.90
12872;DHT22;6504;53.766;9.626;2022-11-20T15:40:14;3.00;99.90
12872;DHT22;6504;53.766;9.626;2022-11-20T15:42:42;2.90;99.90
12872;DHT22;6504;53.766;9.626;2022-11-20T15:45:38;2.90;99.90
12872;DHT22;6504;53.766;9.626;2022-11-20T15:48:09;2.90;99.90
12872;DHT22;6504;53.766;9.626;2022-11-20T15:50:43;2.90;99.90
12872;DHT22;6504;53.766;9.626;2022-11-20T15:53:14;2.90;99.90
12872;DHT22;6504;53.766;9.626;2022-11-20T15:55:44;2.90;99.90
12872;DHT22;6504;53.766;9.626;2022-11-20T15:58:12;2.90;99.90
12872;DHT22;6504;53.766;9.626;2022-11-20T16:00:40;2.80;99.90
12872;DHT22;6504;53.766;9.626;2022-11-20T16:03:09;2.70;99.90
12872;DHT22;6504;53.766;9.626;2022-11-20T16:05:38;2.70;99.90
12872;DHT22;6504;53.766;9.626;2022-11-20T16:08:07;2.70;99.90
12872;DHT22;6504;53.766;9.626;2022-11-20T16:10:38;2.70;99.90
12872;DHT22;6504;53.766;9.626;2022-11-20T16:13:12;2.70;99.90
12872;DHT22;6504;53.766;9.626;2022-11-20T16:15:59;2.70;99.90
12872;DHT22;6504;53.766;9.626;2022-11-20T16:18:29;2.60;99.90
12872;DHT22;6504;53.766;9.626;2022-11-20T16:20:57;2.60;99.90
12872;DHT22;6504;53.766;9.626;2022-11-20T16:23:25;2.60;99.90
12872;DHT22;6504;53.766;9.626;2022-11-20T16:25:53;2.60;99.90
12872;DHT22;6504;53.766;9.626;2022-11-20T16:28:23;2.50;99.90
12872;DHT22;6504;53.766;9.626;2022-11-20T16:30:51;2.50;99.90
12872;DHT22;6504;53.766;9.626;2022-11-20T16:33:19;2.50;99.90
12872;DHT22;6504;53.766;9.626;2022-11-20T16:35:47;2.50;99.90